createdAt,value
2023-01-06T00:00:03.295Z,8.60
2023-01-06T00:02:49.682Z,8.50
2023-01-06T00:05:37.729Z,8.50
2023-01-06T00:08:24.137Z,8.40
2023-01-06T00:11:12.048Z,8.40
2023-01-06T00:13:59.333Z,8.40
2023-01-06T00:16:45.884Z,8.40
2023-01-06T00:19:32.392Z,8.50
2023-01-06T00:22:20.066Z,8.70
2023-01-06T00:25:07.318Z,8.70
2023-01-06T00:27:54.022Z,8.70
2023-01-06T00:30:40.321Z,8.80
2023-01-06T00:33:26.718Z,8.70
2023-01-06T00:36:14.998Z,8.80
2023-01-06T00:39:02.922Z,8.70
2023-01-06T00:42:04.703Z,8.80
2023-01-06T00:44:52.384Z,8.80
2023-01-06T00:47:38.877Z,8.80
2023-01-06T00:50:25.483Z,8.80
2023-01-06T00:53:12.230Z,8.80
2023-01-06T00:56:02.536Z,8.80
2023-01-06T00:58:49.071Z,8.80
2023-01-06T01:01:36.626Z,8.90
2023-01-06T01:04:23.702Z,8.90
2023-01-06T01:07:10.410Z,9.00
2023-01-06T01:09:56.683Z,9.00
2023-01-06T01:12:44.583Z,9.10
2023-01-06T01:15:32.247Z,9.10
2023-01-06T01:18:18.754Z,9.10
2023-01-06T01:21:05.265Z,9.10
2023-01-06T01:23:51.950Z,9.10
2023-01-06T01:26:38.651Z,9.10
2023-01-06T01:29:27.074Z,9.20
2023-01-06T01:32:13.705Z,9.20
2023-01-06T01:35:00.014Z,9.10
2023-01-06T01:37:46.378Z,9.10
2023-01-06T01:40:32.727Z,9.10
2023-01-06T01:43:19.451Z,9.30
2023-01-06T01:46:07.484Z,9.20
2023-01-06T01:48:56.570Z,9.30
2023-01-06T01:51:45.672Z,9.30
2023-01-06T01:54:35.211Z,9.20
2023-01-06T01:57:26.543Z,9.10
2023-01-06T02:00:13.778Z,9.10
2023-01-06T02:03:01.831Z,9.10
2023-01-06T02:05:51.616Z,9.10
2023-01-06T02:08:41.706Z,9.00
2023-01-06T02:11:30.178Z,9.00
2023-01-06T02:14:18.482Z,8.90
2023-01-06T02:17:19.179Z,8.80
2023-01-06T02:20:30.381Z,8.80
2023-01-06T02:23:40.851Z,8.80
2023-01-06T02:27:02.514Z,8.80
2023-01-06T02:30:18.647Z,8.90
2023-01-06T02:33:19.698Z,8.90
2023-01-06T02:36:21.667Z,8.90
2023-01-06T02:39:21.261Z,9.00
2023-01-06T02:42:17.812Z,9.00
2023-01-06T02:45:14.174Z,9.00
2023-01-06T02:48:11.129Z,9.00
2023-01-06T02:51:07.131Z,9.10
2023-01-06T02:54:04.589Z,9.10
2023-01-06T02:56:56.367Z,9.00
2023-01-06T02:59:48.422Z,9.00
2023-01-06T03:02:37.215Z,9.00
2023-01-06T03:05:25.902Z,9.00
2023-01-06T03:08:17.089Z,9.10
2023-01-06T03:11:04.627Z,9.20
2023-01-06T03:13:54.343Z,9.20
2023-01-06T03:16:40.903Z,9.30
2023-01-06T03:19:27.757Z,9.30
2023-01-06T03:25:03.272Z,9.20
2023-01-06T03:27:49.725Z,9.20
2023-01-06T03:30:42.567Z,9.20
2023-01-06T03:33:36.855Z,9.10
2023-01-06T03:36:31.589Z,9.10
2023-01-06T03:39:23.611Z,9.20
2023-01-06T03:42:43.638Z,9.20
2023-01-06T03:45:45.260Z,9.10
2023-01-06T03:48:38.765Z,9.10
2023-01-06T03:51:37.937Z,9.10
2023-01-06T03:54:35.205Z,9.10
2023-01-06T03:57:27.224Z,9.10
2023-01-06T04:00:18.388Z,9.10
2023-01-06T04:03:08.530Z,9.10
2023-01-06T04:05:55.672Z,9.20
2023-01-06T04:08:42.269Z,9.10
2023-01-06T04:11:45.960Z,9.10
2023-01-06T04:14:33.977Z,9.10
2023-01-06T04:17:20.373Z,9.20
2023-01-06T04:20:08.171Z,9.10
2023-01-06T04:22:55.101Z,9.20
2023-01-06T04:25:44.192Z,9.10
2023-01-06T04:28:31.479Z,9.10
2023-01-06T04:31:19.681Z,9.10
2023-01-06T04:34:06.331Z,9.00
2023-01-06T04:36:52.909Z,9.00
2023-01-06T04:39:39.201Z,9.00
2023-01-06T04:42:25.557Z,9.00
2023-01-06T04:45:12.261Z,9.00
2023-01-06T04:47:59.948Z,9.00
2023-01-06T04:50:46.576Z,9.00
2023-01-06T04:53:35.275Z,9.00
2023-01-06T04:56:21.658Z,9.00
2023-01-06T04:59:08.071Z,9.00
2023-01-06T05:01:54.412Z,9.00
2023-01-06T05:04:47.758Z,9.10
2023-01-06T05:07:35.031Z,9.10
2023-01-06T05:10:21.347Z,9.10
2023-01-06T05:13:07.696Z,9.10
2023-01-06T05:15:54.063Z,9.20
2023-01-06T05:18:40.393Z,9.10
2023-01-06T05:21:32.740Z,9.10
2023-01-06T05:24:19.302Z,9.20
2023-01-06T05:27:05.949Z,9.20
2023-01-06T05:29:52.117Z,9.10
2023-01-06T05:32:38.431Z,9.10
2023-01-06T05:35:24.805Z,9.10
2023-01-06T05:38:12.262Z,9.10
2023-01-06T05:40:58.770Z,9.10
2023-01-06T05:43:45.490Z,9.10
2023-01-06T05:46:31.857Z,9.20
2023-01-06T05:49:18.054Z,9.10
2023-01-06T05:52:04.569Z,9.10
2023-01-06T05:54:52.303Z,9.20
2023-01-06T05:57:38.925Z,9.20
2023-01-06T06:00:25.637Z,9.20
2023-01-06T06:03:12.070Z,9.30
2023-01-06T06:06:04.173Z,9.30
2023-01-06T06:08:50.968Z,9.30
2023-01-06T06:11:39.011Z,9.40
2023-01-06T06:14:26.762Z,9.30
2023-01-06T06:17:13.059Z,9.30
2023-01-06T06:19:59.498Z,9.30
2023-01-06T06:22:45.714Z,9.30
2023-01-06T06:25:32.384Z,9.30
2023-01-06T06:28:19.992Z,9.30
2023-01-06T06:31:07.713Z,9.30
2023-01-06T06:33:56.001Z,9.20
2023-01-06T06:36:42.802Z,9.40
2023-01-06T06:39:29.416Z,9.40
2023-01-06T06:42:15.671Z,9.40
2023-01-06T06:45:03.481Z,9.40
2023-01-06T06:47:49.821Z,9.40
2023-01-06T06:50:35.990Z,9.40
2023-01-06T06:53:22.377Z,9.50
2023-01-06T06:56:09.581Z,9.40
2023-01-06T06:58:56.102Z,9.40
2023-01-06T07:01:44.108Z,9.30
2023-01-06T07:04:30.993Z,9.30
2023-01-06T07:07:17.213Z,9.30
2023-01-06T07:10:03.488Z,9.30
2023-01-06T07:12:49.953Z,9.40
2023-01-06T07:15:36.535Z,9.40
2023-01-06T07:18:24.418Z,9.40
2023-01-06T07:21:11.079Z,9.50
2023-01-06T07:23:57.394Z,9.40
2023-01-06T07:26:43.742Z,9.50
2023-01-06T07:29:30.270Z,9.40
2023-01-06T07:32:16.487Z,9.50
2023-01-06T07:35:04.373Z,9.50
2023-01-06T07:37:51.283Z,9.50
2023-01-06T07:40:38.188Z,9.50
2023-01-06T07:43:24.493Z,9.60
2023-01-06T07:46:11.072Z,9.60
2023-01-06T07:48:57.987Z,9.60
2023-01-06T07:51:45.925Z,9.60
2023-01-06T07:54:32.932Z,9.80
2023-01-06T07:57:19.448Z,9.80
2023-01-06T08:00:06.810Z,9.90
2023-01-06T08:02:53.424Z,9.90
2023-01-06T08:05:41.405Z,9.90
2023-01-06T08:08:30.414Z,9.90
2023-01-06T08:11:17.171Z,10.00
2023-01-06T08:14:03.919Z,10.00
2023-01-06T08:16:50.176Z,10.00
2023-01-06T08:19:36.913Z,10.00
2023-01-06T08:22:24.392Z,9.90
2023-01-06T08:25:12.569Z,9.90
2023-01-06T08:28:00.235Z,9.90
2023-01-06T08:30:48.480Z,9.90
2023-01-06T08:33:34.808Z,9.90
2023-01-06T08:36:23.079Z,9.90
2023-01-06T08:39:09.375Z,10.00
2023-01-06T08:41:57.445Z,10.00
2023-01-06T08:44:44.657Z,10.00
2023-01-06T08:47:31.231Z,10.10
2023-01-06T08:50:17.747Z,10.10
2023-01-06T08:53:04.315Z,10.10
2023-01-06T08:55:50.646Z,10.10
2023-01-06T08:58:38.346Z,10.10
2023-01-06T09:01:26.636Z,10.00
2023-01-06T09:04:13.785Z,10.10
2023-01-06T09:07:00.182Z,10.10
2023-01-06T09:09:46.820Z,10.20
2023-01-06T09:12:33.350Z,10.20
2023-01-06T09:15:21.353Z,10.20
2023-01-06T09:18:08.541Z,10.20
2023-01-06T09:20:54.957Z,10.20
2023-01-06T09:23:41.324Z,10.20
2023-01-06T09:26:28.337Z,10.20
2023-01-06T09:29:15.245Z,10.20
2023-01-06T09:32:03.311Z,10.20
2023-01-06T09:34:49.821Z,10.30
2023-01-06T09:37:36.409Z,10.40
2023-01-06T09:40:29.086Z,10.40
2023-01-06T09:43:27.866Z,10.40
2023-01-06T09:46:17.254Z,10.40
2023-01-06T09:49:10.874Z,10.40
2023-01-06T09:52:02.078Z,10.40
2023-01-06T09:54:54.203Z,10.40
2023-01-06T09:57:45.755Z,10.50
2023-01-06T10:00:37.795Z,10.50
2023-01-06T10:03:26.284Z,10.50
2023-01-06T10:06:32.829Z,10.60
2023-01-06T10:09:28.331Z,10.60
2023-01-06T10:12:29.510Z,10.60
2023-01-06T10:15:26.696Z,10.70
2023-01-06T10:18:27.355Z,10.70
2023-01-06T10:21:24.979Z,10.70
2023-01-06T10:24:28.067Z,10.70
2023-01-06T10:30:19.293Z,10.80
2023-01-06T10:33:06.628Z,10.80
2023-01-06T10:35:55.015Z,10.80
2023-01-06T10:38:46.056Z,10.80
2023-01-06T10:41:42.482Z,10.90
2023-01-06T10:44:29.031Z,10.90
2023-01-06T10:47:23.497Z,11.10
2023-01-06T10:50:15.032Z,11.00
2023-01-06T10:53:01.925Z,11.10
2023-01-06T10:58:47.346Z,11.40
2023-01-06T11:01:35.015Z,11.60
2023-01-06T11:04:22.047Z,11.90
2023-01-06T11:07:15.544Z,11.90
2023-01-06T11:10:01.984Z,11.90
2023-01-06T11:12:49.475Z,11.90
2023-01-06T11:15:39.783Z,12.00
2023-01-06T11:18:29.074Z,12.10
2023-01-06T11:21:16.544Z,12.00
2023-01-06T11:24:16.586Z,12.10
2023-01-06T11:27:15.538Z,12.00
2023-01-06T11:30:22.122Z,12.10
2023-01-06T11:33:17.896Z,12.10
2023-01-06T11:36:10.243Z,12.10
2023-01-06T11:38:59.549Z,12.10
2023-01-06T11:41:48.828Z,11.90
2023-01-06T11:44:37.272Z,11.80
2023-01-06T11:47:28.179Z,11.80
2023-01-06T11:50:20.923Z,11.80
2023-01-06T11:53:17.913Z,11.60
2023-01-06T11:56:06.365Z,11.60
2023-01-06T11:59:03.657Z,11.80
2023-01-06T12:01:55.277Z,11.80
2023-01-06T12:04:48.209Z,11.80
2023-01-06T12:07:41.769Z,11.80
2023-01-06T12:10:33.678Z,11.90
2023-01-06T12:13:20.835Z,11.90
2023-01-06T12:16:13.055Z,11.90
2023-01-06T12:19:00.605Z,11.90
2023-01-06T12:21:48.528Z,11.90
2023-01-06T12:24:36.589Z,11.90
2023-01-06T12:27:31.015Z,11.90
2023-01-06T12:30:24.281Z,11.90
2023-01-06T12:33:17.506Z,12.00
2023-01-06T12:36:09.238Z,11.90
2023-01-06T12:38:59.494Z,11.90
2023-01-06T12:41:50.643Z,11.90
2023-01-06T12:44:44.885Z,12.00
2023-01-06T12:47:36.260Z,11.90
2023-01-06T12:50:33.861Z,12.00
2023-01-06T12:53:25.111Z,12.00
2023-01-06T12:56:31.057Z,11.90
2023-01-06T12:59:26.651Z,11.90
2023-01-06T13:02:22.728Z,11.80
2023-01-06T13:05:44.813Z,11.90
2023-01-06T13:08:49.824Z,11.90
2023-01-06T13:11:55.307Z,11.90
2023-01-06T13:14:49.187Z,11.90
2023-01-06T13:17:41.634Z,11.90
2023-01-06T13:20:34.154Z,11.90
2023-01-06T13:23:39.694Z,11.90
2023-01-06T13:27:02.010Z,11.80
2023-01-06T13:30:03.867Z,11.80
2023-01-06T13:33:09.527Z,11.90
2023-01-06T13:36:06.474Z,11.90
2023-01-06T13:38:58.439Z,11.80
2023-01-06T13:41:48.634Z,11.80
2023-01-06T13:44:39.715Z,11.80
2023-01-06T13:47:27.149Z,11.80
2023-01-06T13:50:15.684Z,11.80
2023-01-06T13:53:03.199Z,11.80
2023-01-06T13:56:10.294Z,11.70
2023-01-06T13:59:20.246Z,11.60
2023-01-06T14:02:50.671Z,11.50
2023-01-06T14:05:54.747Z,11.50
2023-01-06T14:08:50.029Z,11.60
2023-01-06T14:11:38.778Z,11.70
2023-01-06T14:14:29.557Z,11.80
2023-01-06T14:17:38.704Z,11.80
2023-01-06T14:20:31.437Z,11.90
2023-01-06T14:23:24.076Z,12.00
2023-01-06T14:26:11.835Z,11.90
2023-01-06T14:29:40.359Z,12.00
2023-01-06T14:33:12.945Z,12.10
2023-01-06T14:36:04.983Z,12.20
2023-01-06T14:38:55.366Z,12.10
2023-01-06T14:41:46.947Z,12.00
2023-01-06T14:44:44.272Z,11.90
2023-01-06T14:47:34.957Z,11.80
2023-01-06T14:50:31.934Z,11.70
2023-01-06T14:53:27.939Z,11.70
2023-01-06T14:56:19.307Z,11.70
2023-01-06T14:59:10.326Z,11.60
2023-01-06T15:02:02.785Z,11.50
2023-01-06T15:04:57.551Z,11.40
2023-01-06T15:07:57.151Z,11.10
2023-01-06T15:10:46.729Z,11.10
2023-01-06T15:13:33.625Z,11.00
2023-01-06T15:16:26.145Z,10.80
2023-01-06T15:19:16.059Z,10.80
2023-01-06T15:22:08.505Z,10.80
2023-01-06T15:24:56.136Z,10.80
2023-01-06T15:27:49.141Z,11.00
2023-01-06T15:30:36.678Z,10.90
2023-01-06T15:33:26.666Z,10.90
2023-01-06T15:36:21.399Z,10.90
2023-01-06T15:39:10.967Z,10.90
2023-01-06T15:41:59.066Z,10.90
2023-01-06T15:44:57.277Z,10.90
2023-01-06T15:47:48.807Z,11.00
2023-01-06T15:50:35.811Z,11.00
2023-01-06T15:53:28.092Z,11.00
2023-01-06T15:56:21.296Z,11.00
2023-01-06T15:59:14.949Z,10.90
2023-01-06T16:02:03.788Z,10.90
2023-01-06T16:04:51.193Z,10.90
2023-01-06T16:07:40.644Z,10.80
2023-01-06T16:10:32.302Z,10.80
2023-01-06T16:13:29.115Z,10.70
2023-01-06T16:16:29.606Z,10.70
2023-01-06T16:19:20.386Z,10.70
2023-01-06T16:22:19.688Z,10.60
2023-01-06T16:25:08.949Z,10.60
2023-01-06T16:27:58.386Z,10.60
2023-01-06T16:31:05.350Z,10.60
2023-01-06T16:33:54.600Z,10.60
2023-01-06T16:36:42.810Z,10.60
2023-01-06T16:39:29.567Z,10.60
2023-01-06T16:42:40.915Z,10.60
2023-01-06T16:45:33.741Z,10.60
2023-01-06T16:48:20.504Z,10.50
2023-01-06T16:51:13.766Z,10.40
2023-01-06T16:54:01.591Z,10.40
2023-01-06T16:56:50.036Z,10.20
2023-01-06T16:59:37.008Z,10.10
2023-01-06T17:02:23.472Z,10.00
2023-01-06T17:05:20.450Z,10.00
2023-01-06T17:08:12.100Z,9.90
2023-01-06T17:11:01.880Z,9.80
2023-01-06T17:13:53.793Z,9.70
2023-01-06T17:16:42.088Z,9.70
2023-01-06T17:19:32.342Z,9.60
2023-01-06T17:22:25.471Z,9.60
2023-01-06T17:25:15.375Z,9.60
2023-01-06T17:28:14.602Z,9.50
2023-01-06T17:31:02.094Z,9.50
2023-01-06T17:33:48.623Z,9.40
2023-01-06T17:36:38.856Z,9.40
2023-01-06T17:39:27.811Z,9.40
2023-01-06T17:42:34.691Z,9.50
2023-01-06T17:45:29.849Z,9.60
2023-01-06T17:48:22.487Z,9.60
2023-01-06T17:51:16.268Z,9.60
2023-01-06T17:54:23.818Z,9.60
2023-01-06T17:57:16.562Z,9.60
2023-01-06T18:00:21.636Z,9.50
2023-01-06T18:03:45.750Z,9.60
2023-01-06T18:06:37.786Z,9.60
2023-01-06T18:09:25.588Z,9.60
2023-01-06T18:12:15.879Z,9.50
2023-01-06T18:15:03.971Z,9.50
2023-01-06T18:17:50.389Z,9.50
2023-01-06T18:20:38.201Z,9.50
2023-01-06T18:23:28.833Z,9.30
2023-01-06T18:26:37.838Z,9.30
2023-01-06T18:29:27.268Z,9.30
2023-01-06T18:32:26.646Z,9.20
2023-01-06T18:35:17.499Z,9.20
2023-01-06T18:38:05.593Z,9.10
2023-01-06T18:40:52.294Z,9.00
2023-01-06T18:43:40.540Z,9.00
2023-01-06T18:46:27.041Z,9.00
2023-01-06T18:49:16.932Z,9.00
2023-01-06T18:52:26.005Z,9.00
2023-01-06T18:55:37.523Z,9.10
2023-01-06T18:58:41.279Z,9.10
2023-01-06T19:01:31.531Z,9.00
2023-01-06T19:04:22.526Z,9.00
2023-01-06T19:07:21.258Z,9.10
2023-01-06T19:10:24.919Z,9.10
2023-01-06T19:13:19.195Z,9.10
2023-01-06T19:16:26.345Z,9.10
2023-01-06T19:19:24.293Z,9.10
2023-01-06T19:22:22.438Z,9.10
2023-01-06T19:25:28.059Z,9.10
2023-01-06T19:28:18.734Z,9.00
2023-01-06T19:31:07.753Z,9.00
2023-01-06T19:33:58.394Z,9.00
2023-01-06T19:36:46.949Z,9.00
2023-01-06T19:39:37.625Z,8.90
2023-01-06T19:42:30.157Z,8.90
2023-01-06T19:45:29.135Z,9.00
2023-01-06T19:48:20.826Z,8.90
2023-01-06T19:51:23.654Z,9.00
2023-01-06T19:54:24.295Z,8.90
2023-01-06T19:57:24.360Z,9.00
2023-01-06T20:00:40.628Z,9.10
2023-01-06T20:03:30.623Z,9.00
2023-01-06T20:06:18.041Z,9.00
2023-01-06T20:09:04.781Z,9.00
2023-01-06T20:11:52.022Z,8.90
2023-01-06T20:14:38.565Z,9.00
2023-01-06T20:17:26.699Z,9.00
2023-01-06T20:20:13.358Z,8.90
2023-01-06T20:22:59.707Z,9.00
2023-01-06T20:25:46.346Z,9.00
2023-01-06T20:28:32.930Z,9.00
2023-01-06T20:31:19.401Z,9.00
2023-01-06T20:34:07.598Z,9.00
2023-01-06T20:36:53.966Z,9.00
2023-01-06T20:39:40.290Z,8.90
2023-01-06T20:42:26.513Z,9.00
2023-01-06T20:45:13.783Z,8.90
2023-01-06T20:48:00.281Z,8.90
2023-01-06T20:50:47.979Z,9.00
2023-01-06T20:53:34.341Z,9.00
2023-01-06T20:56:20.643Z,9.00
2023-01-06T20:59:07.047Z,9.00
2023-01-06T21:01:53.557Z,9.00
2023-01-06T21:04:40.541Z,9.00
2023-01-06T21:07:28.489Z,8.90
2023-01-06T21:10:15.198Z,9.00
2023-01-06T21:13:03.312Z,8.90
2023-01-06T21:15:49.900Z,9.00
2023-01-06T21:18:36.474Z,9.00
2023-01-06T21:21:22.776Z,8.90
2023-01-06T21:24:10.797Z,8.90
2023-01-06T21:26:57.361Z,8.90
2023-01-06T21:29:43.901Z,8.80
2023-01-06T21:32:30.375Z,8.90
2023-01-06T21:35:17.121Z,8.80
2023-01-06T21:38:05.251Z,8.80
2023-01-06T21:40:53.984Z,8.80
2023-01-06T21:43:39.635Z,8.90
2023-01-06T21:46:26.145Z,8.80
2023-01-06T21:49:12.963Z,8.80
2023-01-06T21:52:00.878Z,8.80
2023-01-06T21:54:47.206Z,8.80
2023-01-06T21:57:36.012Z,8.80
2023-01-06T22:00:22.824Z,8.80
2023-01-06T22:03:09.426Z,8.80
2023-01-06T22:05:56.598Z,8.80
2023-01-06T22:08:43.378Z,8.80
2023-01-06T22:11:30.663Z,8.90
2023-01-06T22:14:19.045Z,8.90
2023-01-06T22:17:06.302Z,9.00
2023-01-06T22:19:54.852Z,9.10
2023-01-06T22:22:42.867Z,9.20
2023-01-06T22:25:29.463Z,9.30
2023-01-06T22:28:15.933Z,9.30
2023-01-06T22:31:04.740Z,9.30
2023-01-06T22:33:51.238Z,9.40
2023-01-06T22:36:37.479Z,9.40
2023-01-06T22:39:24.027Z,9.40
2023-01-06T22:42:10.404Z,9.40
2023-01-06T22:44:56.852Z,9.40
2023-01-06T22:47:44.651Z,9.50
2023-01-06T22:50:31.174Z,9.50
2023-01-06T22:53:17.572Z,9.50
2023-01-06T22:56:06.351Z,9.50
2023-01-06T22:58:52.786Z,9.50
2023-01-06T23:01:39.139Z,9.50
2023-01-06T23:04:27.411Z,9.50
2023-01-06T23:07:14.031Z,9.60
2023-01-06T23:10:00.171Z,9.50
2023-01-06T23:12:46.545Z,9.60
2023-01-06T23:15:33.439Z,9.60
2023-01-06T23:18:19.731Z,9.60
2023-01-06T23:21:10.152Z,9.70
2023-01-06T23:23:57.181Z,9.70
2023-01-06T23:26:46.034Z,9.60
2023-01-06T23:29:32.658Z,9.60
2023-01-06T23:32:20.227Z,9.60
2023-01-06T23:35:07.285Z,9.50
2023-01-06T23:37:54.996Z,9.50
2023-01-06T23:40:41.307Z,9.40
2023-01-06T23:43:27.696Z,9.40
2023-01-06T23:46:16.242Z,9.40
2023-01-06T23:49:03.366Z,9.40
2023-01-06T23:51:49.694Z,9.40
2023-01-06T23:54:37.475Z,9.40
2023-01-06T23:57:23.849Z,9.50
